Airport View

Enter AWOS ICAO identifier for current METAR.

ex. KFNL

KY19 201140Z AUTO 08011G16KT 10SM BKN009 BKN070 OVC085 M00/M00 A2984 RMK AO2

20 Nov 2019 11:42

Frequency: 118.225

Phone: 701-663-0271

Other Area AWOS: KBIS - KD57 - KHZE - K7L2

TAF KBIS 200535Z 2006/2106 06007KT P6SM BKN110 FM200900 06010KT P6SM SCT020 OVC035 FM201200 06007KT P6SM VCSH SCT013 OVC025 FM201400 05007KT P6SM -SN OVC013 FM201800 02012KT P6SM VCSH OVC009 FM210300 34013KT P6SM OVC020